sensor_id;sensor_type;location;lat;lon;timestamp;pressure;altitude;pressure_sealevel;temperature;humidity
38303;BME280;24103;42.454;27.400;2023-05-20T00:00:24;100730.69;;;16.55;100.00
38303;BME280;24103;42.454;27.400;2023-05-20T00:02:49;100727.53;;;16.50;100.00
38303;BME280;24103;42.454;27.400;2023-05-20T00:05:15;100728.63;;;16.48;100.00
38303;BME280;24103;42.454;27.400;2023-05-20T00:07:40;100733.25;;;16.46;100.00
38303;BME280;24103;42.454;27.400;2023-05-20T00:10:06;100725.59;;;16.41;100.00
38303;BME280;24103;42.454;27.400;2023-05-20T00:12:32;100722.81;;;16.31;100.00
38303;BME280;24103;42.454;27.400;2023-05-20T00:14:59;100718.72;;;16.16;100.00
38303;BME280;24103;42.454;27.400;2023-05-20T00:17:25;100726.81;;;16.14;100.00
38303;BME280;24103;42.454;27.400;2023-05-20T00:19:52;100725.84;;;16.04;100.00
38303;BME280;24103;42.454;27.400;2023-05-20T00:22:18;100730.59;;;16.00;100.00
38303;BME280;24103;42.454;27.400;2023-05-20T00:24:43;100733.47;;;15.97;100.00
38303;BME280;24103;42.454;27.400;2023-05-20T00:27:09;100727.16;;;15.87;100.00
38303;BME280;24103;42.454;27.400;2023-05-20T00:29:34;100735.47;;;15.71;100.00
38303;BME280;24103;42.454;27.400;2023-05-20T00:32:00;100748.75;;;15.60;100.00
38303;BME280;24103;42.454;27.400;2023-05-20T00:34:25;100750.75;;;15.45;100.00
38303;BME280;24103;42.454;27.400;2023-05-20T00:36:51;100754.69;;;15.28;100.00
38303;BME280;24103;42.454;27.400;2023-05-20T00:39:16;100755.78;;;15.13;100.00
38303;BME280;24103;42.454;27.400;2023-05-20T00:41:42;100753.94;;;15.02;100.00
38303;BME280;24103;42.454;27.400;2023-05-20T00:44:07;100744.69;;;14.95;100.00
38303;BME280;24103;42.454;27.400;2023-05-20T00:46:34;100758.69;;;14.85;100.00
38303;BME280;24103;42.454;27.400;2023-05-20T00:48:59;100750.28;;;14.79;100.00
38303;BME280;24103;42.454;27.400;2023-05-20T00:51:25;100752.88;;;14.67;100.00
38303;BME280;24103;42.454;27.400;2023-05-20T00:53:51;100747.66;;;14.66;100.00
38303;BME280;24103;42.454;27.400;2023-05-20T00:56:16;100753.41;;;14.60;100.00
38303;BME280;24103;42.454;27.400;2023-05-20T00:58:43;100758.19;;;14.54;100.00
38303;BME280;24103;42.454;27.400;2023-05-20T01:01:08;100764.69;;;14.50;100.00
38303;BME280;24103;42.454;27.400;2023-05-20T01:03:34;100765.00;;;14.46;100.00
38303;BME280;24103;42.454;27.400;2023-05-20T01:05:59;100766.06;;;14.43;100.00
38303;BME280;24103;42.454;27.400;2023-05-20T01:08:25;100761.63;;;14.44;100.00
38303;BME280;24103;42.454;27.400;2023-05-20T01:10:58;100757.66;;;14.49;100.00
38303;BME280;24103;42.454;27.400;2023-05-20T01:13:32;100757.13;;;14.57;100.00
38303;BME280;24103;42.454;27.400;2023-05-20T01:16:02;100751.16;;;14.53;100.00
38303;BME280;24103;42.454;27.400;2023-05-20T01:18:29;100747.88;;;14.50;100.00
38303;BME280;24103;42.454;27.400;2023-05-20T01:20:56;100749.59;;;14.51;100.00
38303;BME280;24103;42.454;27.400;2023-05-20T01:23:45;100752.25;;;14.51;100.00
38303;BME280;24103;42.454;27.400;2023-05-20T01:26:11;100752.75;;;14.56;100.00
38303;BME280;24103;42.454;27.400;2023-05-20T01:28:41;100745.81;;;14.79;100.00
38303;BME280;24103;42.454;27.400;2023-05-20T01:31:13;100742.03;;;14.95;100.00
38303;BME280;24103;42.454;27.400;2023-05-20T01:33:42;100750.47;;;15.13;100.00
38303;BME280;24103;42.454;27.400;2023-05-20T01:36:08;100742.66;;;15.22;100.00
38303;BME280;24103;42.454;27.400;2023-05-20T01:38:34;100747.47;;;15.41;100.00
38303;BME280;24103;42.454;27.400;2023-05-20T01:41:01;100746.41;;;15.55;100.00
38303;BME280;24103;42.454;27.400;2023-05-20T01:43:29;100744.88;;;15.64;100.00
38303;BME280;24103;42.454;27.400;2023-05-20T01:45:55;100742.16;;;15.77;100.00
38303;BME280;24103;42.454;27.400;2023-05-20T01:48:20;100749.91;;;15.80;100.00
38303;BME280;24103;42.454;27.400;2023-05-20T01:50:46;100738.22;;;15.70;100.00
38303;BME280;24103;42.454;27.400;2023-05-20T01:53:11;100747.41;;;15.54;100.00
38303;BME280;24103;42.454;27.400;2023-05-20T01:55:37;100747.25;;;15.44;100.00
38303;BME280;24103;42.454;27.400;2023-05-20T01:58:03;100744.81;;;15.41;100.00
38303;BME280;24103;42.454;27.400;2023-05-20T02:00:30;100745.16;;;15.37;100.00
38303;BME280;24103;42.454;27.400;2023-05-20T02:02:56;100731.56;;;15.28;100.00
38303;BME280;24103;42.454;27.400;2023-05-20T02:05:21;100733.00;;;15.33;100.00
38303;BME280;24103;42.454;27.400;2023-05-20T02:07:47;100739.31;;;15.32;100.00
38303;BME280;24103;42.454;27.400;2023-05-20T02:10:12;100730.34;;;15.33;100.00
38303;BME280;24103;42.454;27.400;2023-05-20T02:12:38;100735.81;;;15.31;100.00
38303;BME280;24103;42.454;27.400;2023-05-20T02:15:04;100739.56;;;15.28;100.00
38303;BME280;24103;42.454;27.400;2023-05-20T02:17:30;100736.16;;;15.26;100.00
38303;BME280;24103;42.454;27.400;2023-05-20T02:19:55;100728.91;;;15.28;100.00
38303;BME280;24103;42.454;27.400;2023-05-20T02:22:21;100734.94;;;15.30;100.00
38303;BME280;24103;42.454;27.400;2023-05-20T02:24:46;100739.31;;;15.32;100.00
38303;BME280;24103;42.454;27.400;2023-05-20T02:27:12;100737.38;;;15.34;100.00
38303;BME280;24103;42.454;27.400;2023-05-20T02:29:37;100738.75;;;15.39;100.00
38303;BME280;24103;42.454;27.400;2023-05-20T02:32:03;100741.56;;;15.49;100.00
38303;BME280;24103;42.454;27.400;2023-05-20T02:34:29;100738.81;;;15.62;100.00
38303;BME280;24103;42.454;27.400;2023-05-20T02:36:55;100734.84;;;15.68;100.00
38303;BME280;24103;42.454;27.400;2023-05-20T02:39:21;100742.47;;;15.72;100.00
38303;BME280;24103;42.454;27.400;2023-05-20T02:41:46;100742.59;;;15.71;100.00
38303;BME280;24103;42.454;27.400;2023-05-20T02:44:12;100734.16;;;15.77;100.00
38303;BME280;24103;42.454;27.400;2023-05-20T02:46:38;100738.06;;;15.84;100.00
38303;BME280;24103;42.454;27.400;2023-05-20T02:49:03;100730.78;;;15.86;100.00
38303;BME280;24103;42.454;27.400;2023-05-20T02:51:28;100734.91;;;15.90;100.00
38303;BME280;24103;42.454;27.400;2023-05-20T02:53:56;100746.19;;;15.94;100.00
38303;BME280;24103;42.454;27.400;2023-05-20T02:56:21;100744.63;;;16.02;100.00
38303;BME280;24103;42.454;27.400;2023-05-20T02:58:47;100748.63;;;16.08;100.00
38303;BME280;24103;42.454;27.400;2023-05-20T03:01:12;100746.44;;;16.13;100.00
38303;BME280;24103;42.454;27.400;2023-05-20T03:03:38;100760.63;;;16.14;100.00
38303;BME280;24103;42.454;27.400;2023-05-20T03:06:05;100757.13;;;16.25;100.00
38303;BME280;24103;42.454;27.400;2023-05-20T03:08:31;100757.72;;;16.28;100.00
38303;BME280;24103;42.454;27.400;2023-05-20T03:10:58;100760.25;;;16.30;100.00
38303;BME280;24103;42.454;27.400;2023-05-20T03:13:24;100759.19;;;16.32;100.00
38303;BME280;24103;42.454;27.400;2023-05-20T03:15:50;100763.06;;;16.28;100.00
38303;BME280;24103;42.454;27.400;2023-05-20T03:18:15;100769.03;;;16.32;100.00
38303;BME280;24103;42.454;27.400;2023-05-20T03:20:41;100768.16;;;16.31;100.00
38303;BME280;24103;42.454;27.400;2023-05-20T03:23:07;100778.09;;;16.40;100.00
38303;BME280;24103;42.454;27.400;2023-05-20T03:25:33;100776.41;;;16.39;100.00
38303;BME280;24103;42.454;27.400;2023-05-20T03:27:59;100781.50;;;16.43;100.00
38303;BME280;24103;42.454;27.400;2023-05-20T03:30:25;100780.03;;;16.50;100.00
38303;BME280;24103;42.454;27.400;2023-05-20T03:32:52;100775.19;;;16.55;100.00
38303;BME280;24103;42.454;27.400;2023-05-20T03:35:17;100782.81;;;16.59;100.00
38303;BME280;24103;42.454;27.400;2023-05-20T03:37:43;100780.66;;;16.53;100.00
38303;BME280;24103;42.454;27.400;2023-05-20T03:40:09;100784.16;;;16.76;100.00
38303;BME280;24103;42.454;27.400;2023-05-20T03:42:36;100780.38;;;16.79;100.00
38303;BME280;24103;42.454;27.400;2023-05-20T03:45:01;100781.97;;;16.82;100.00
38303;BME280;24103;42.454;27.400;2023-05-20T03:47:27;100772.97;;;16.83;100.00
38303;BME280;24103;42.454;27.400;2023-05-20T03:49:53;100765.72;;;16.96;100.00
38303;BME280;24103;42.454;27.400;2023-05-20T03:52:19;100767.16;;;17.00;100.00
38303;BME280;24103;42.454;27.400;2023-05-20T03:54:44;100759.72;;;17.04;100.00
38303;BME280;24103;42.454;27.400;2023-05-20T03:57:10;100765.19;;;17.02;100.00
38303;BME280;24103;42.454;27.400;2023-05-20T03:59:36;100766.19;;;17.01;100.00
38303;BME280;24103;42.454;27.400;2023-05-20T04:02:02;100771.00;;;17.07;100.00
38303;BME280;24103;42.454;27.400;2023-05-20T04:04:28;100769.09;;;17.09;100.00
38303;BME280;24103;42.454;27.400;2023-05-20T04:06:53;100774.28;;;17.11;100.00
38303;BME280;24103;42.454;27.400;2023-05-20T04:09:21;100772.81;;;17.18;100.00
38303;BME280;24103;42.454;27.400;2023-05-20T04:11:47;100771.09;;;17.17;100.00
38303;BME280;24103;42.454;27.400;2023-05-20T04:14:12;100773.41;;;17.22;100.00
38303;BME280;24103;42.454;27.400;2023-05-20T04:16:38;100761.09;;;17.30;100.00
38303;BME280;24103;42.454;27.400;2023-05-20T04:19:03;100751.03;;;17.34;100.00
38303;BME280;24103;42.454;27.400;2023-05-20T04:21:29;100746.94;;;17.51;100.00
38303;BME280;24103;42.454;27.400;2023-05-20T04:23:55;100744.94;;;17.64;100.00
38303;BME280;24103;42.454;27.400;2023-05-20T04:26:21;100751.63;;;17.80;100.00
38303;BME280;24103;42.454;27.400;2023-05-20T04:28:46;100752.19;;;17.74;100.00
38303;BME280;24103;42.454;27.400;2023-05-20T04:31:14;100755.31;;;17.79;100.00
38303;BME280;24103;42.454;27.400;2023-05-20T04:33:39;100746.69;;;17.75;100.00
38303;BME280;24103;42.454;27.400;2023-05-20T04:36:14;100755.44;;;17.77;100.00
38303;BME280;24103;42.454;27.400;2023-05-20T04:38:40;100750.13;;;17.98;100.00
38303;BME280;24103;42.454;27.400;2023-05-20T04:41:06;100750.19;;;18.18;100.00
38303;BME280;24103;42.454;27.400;2023-05-20T04:43:32;100760.88;;;18.18;100.00
38303;BME280;24103;42.454;27.400;2023-05-20T04:45:58;100762.47;;;18.20;100.00
38303;BME280;24103;42.454;27.400;2023-05-20T04:48:31;100762.97;;;18.14;100.00
38303;BME280;24103;42.454;27.400;2023-05-20T04:50:56;100764.44;;;17.97;100.00
38303;BME280;24103;42.454;27.400;2023-05-20T04:53:22;100767.06;;;17.88;100.00
38303;BME280;24103;42.454;27.400;2023-05-20T04:55:48;100763.28;;;17.90;100.00
38303;BME280;24103;42.454;27.400;2023-05-20T04:58:18;100763.47;;;17.98;100.00
38303;BME280;24103;42.454;27.400;2023-05-20T05:00:44;100765.16;;;17.99;100.00
38303;BME280;24103;42.454;27.400;2023-05-20T05:03:11;100761.84;;;18.07;100.00
38303;BME280;24103;42.454;27.400;2023-05-20T05:05:39;100767.75;;;18.11;100.00
38303;BME280;24103;42.454;27.400;2023-05-20T05:08:06;100769.50;;;18.21;100.00
38303;BME280;24103;42.454;27.400;2023-05-20T05:10:32;100767.81;;;18.20;100.00
38303;BME280;24103;42.454;27.400;2023-05-20T05:12:58;100772.50;;;18.28;100.00
38303;BME280;24103;42.454;27.400;2023-05-20T05:15:24;100769.41;;;18.33;100.00
38303;BME280;24103;42.454;27.400;2023-05-20T05:17:49;100769.09;;;18.26;100.00
38303;BME280;24103;42.454;27.400;2023-05-20T05:20:16;100776.28;;;18.26;100.00
38303;BME280;24103;42.454;27.400;2023-05-20T05:22:42;100779.66;;;18.28;100.00
38303;BME280;24103;42.454;27.400;2023-05-20T05:25:08;100784.25;;;18.16;100.00
38303;BME280;24103;42.454;27.400;2023-05-20T05:27:34;100785.75;;;18.09;100.00
38303;BME280;24103;42.454;27.400;2023-05-20T05:30:01;100784.25;;;18.16;100.00
38303;BME280;24103;42.454;27.400;2023-05-20T05:32:26;100782.69;;;18.13;100.00
38303;BME280;24103;42.454;27.400;2023-05-20T05:34:51;100790.97;;;18.10;100.00
38303;BME280;24103;42.454;27.400;2023-05-20T05:37:17;100788.84;;;18.04;100.00
38303;BME280;24103;42.454;27.400;2023-05-20T05:39:42;100788.00;;;18.03;100.00
38303;BME280;24103;42.454;27.400;2023-05-20T05:42:08;100791.63;;;18.02;100.00
38303;BME280;24103;42.454;27.400;2023-05-20T05:44:33;100793.72;;;17.99;100.00
38303;BME280;24103;42.454;27.400;2023-05-20T05:46:59;100795.16;;;18.03;100.00
38303;BME280;24103;42.454;27.400;2023-05-20T05:49:24;100799.78;;;18.01;100.00
38303;BME280;24103;42.454;27.400;2023-05-20T05:51:50;100812.56;;;17.97;100.00
38303;BME280;24103;42.454;27.400;2023-05-20T05:54:16;100804.56;;;17.97;100.00
38303;BME280;24103;42.454;27.400;2023-05-20T05:56:41;100803.88;;;17.84;100.00
38303;BME280;24103;42.454;27.400;2023-05-20T05:59:06;100793.72;;;17.66;100.00
38303;BME280;24103;42.454;27.400;2023-05-20T06:01:33;100805.81;;;17.61;100.00
38303;BME280;24103;42.454;27.400;2023-05-20T06:03:58;100800.31;;;17.62;100.00
38303;BME280;24103;42.454;27.400;2023-05-20T06:06:25;100794.00;;;17.63;100.00
38303;BME280;24103;42.454;27.400;2023-05-20T06:08:50;100785.25;;;17.61;100.00
38303;BME280;24103;42.454;27.400;2023-05-20T06:11:16;100781.88;;;17.59;100.00
38303;BME280;24103;42.454;27.400;2023-05-20T06:13:41;100785.34;;;17.71;100.00
38303;BME280;24103;42.454;27.400;2023-05-20T06:16:07;100785.53;;;17.79;100.00
38303;BME280;24103;42.454;27.400;2023-05-20T06:18:32;100780.66;;;17.84;100.00
38303;BME280;24103;42.454;27.400;2023-05-20T06:20:58;100768.00;;;17.86;100.00
38303;BME280;24103;42.454;27.400;2023-05-20T06:23:24;100773.97;;;17.90;100.00
38303;BME280;24103;42.454;27.400;2023-05-20T06:25:50;100770.19;;;17.93;100.00
38303;BME280;24103;42.454;27.400;2023-05-20T06:28:16;100771.13;;;18.13;100.00
38303;BME280;24103;42.454;27.400;2023-05-20T06:30:42;100769.69;;;18.30;100.00
38303;BME280;24103;42.454;27.400;2023-05-20T06:33:07;100781.47;;;18.48;100.00
38303;BME280;24103;42.454;27.400;2023-05-20T06:35:33;100781.47;;;18.48;100.00
38303;BME280;24103;42.454;27.400;2023-05-20T06:37:59;100790.38;;;18.58;100.00
38303;BME280;24103;42.454;27.400;2023-05-20T06:40:26;100778.38;;;18.53;100.00
38303;BME280;24103;42.454;27.400;2023-05-20T06:42:52;100781.47;;;18.48;100.00
38303;BME280;24103;42.454;27.400;2023-05-20T06:45:17;100775.06;;;18.39;100.00
38303;BME280;24103;42.454;27.400;2023-05-20T06:47:43;100778.03;;;18.36;100.00
38303;BME280;24103;42.454;27.400;2023-05-20T06:50:10;100776.53;;;18.22;100.00
38303;BME280;24103;42.454;27.400;2023-05-20T06:52:35;100770.34;;;18.22;100.00
38303;BME280;24103;42.454;27.400;2023-05-20T06:55:02;100774.69;;;18.23;100.00
38303;BME280;24103;42.454;27.400;2023-05-20T06:57:27;100773.28;;;18.19;100.00
38303;BME280;24103;42.454;27.400;2023-05-20T06:59:53;100771.72;;;18.16;100.00
38303;BME280;24103;42.454;27.400;2023-05-20T07:02:20;100769.78;;;18.18;100.00
38303;BME280;24103;42.454;27.400;2023-05-20T07:04:46;100766.19;;;18.08;100.00
38303;BME280;24103;42.454;27.400;2023-05-20T07:07:11;100761.00;;;18.07;100.00
38303;BME280;24103;42.454;27.400;2023-05-20T07:09:37;100762.47;;;18.20;100.00
38303;BME280;24103;42.454;27.400;2023-05-20T07:12:02;100770.72;;;18.38;100.00
38303;BME280;24103;42.454;27.400;2023-05-20T07:14:28;100765.53;;;18.47;100.00
38303;BME280;24103;42.454;27.400;2023-05-20T07:16:53;100767.56;;;18.64;100.00
38303;BME280;24103;42.454;27.400;2023-05-20T07:19:19;100773.78;;;18.65;100.00
38303;BME280;24103;42.454;27.400;2023-05-20T07:21:44;100769.97;;;18.67;100.00
38303;BME280;24103;42.454;27.400;2023-05-20T07:24:10;100773.06;;;18.72;100.00
38303;BME280;24103;42.454;27.400;2023-05-20T07:26:35;100767.66;;;18.84;100.00
38303;BME280;24103;42.454;27.400;2023-05-20T07:29:04;100770.94;;;19.07;100.00
38303;BME280;24103;42.454;27.400;2023-05-20T07:31:30;100762.09;;;19.26;100.00
38303;BME280;24103;42.454;27.400;2023-05-20T07:33:56;100758.41;;;19.46;100.00
38303;BME280;24103;42.454;27.400;2023-05-20T07:36:22;100751.34;;;19.84;100.00
38303;BME280;24103;42.454;27.400;2023-05-20T07:38:47;100754.34;;;20.29;100.00
38303;BME280;24103;42.454;27.400;2023-05-20T07:41:13;100746.50;;;20.45;99.29
38303;BME280;24103;42.454;27.400;2023-05-20T07:43:39;100747.44;;;20.54;99.14
38303;BME280;24103;42.454;27.400;2023-05-20T07:46:04;100739.38;;;20.64;96.13
38303;BME280;24103;42.454;27.400;2023-05-20T07:48:30;100744.41;;;20.94;94.78
38303;BME280;24103;42.454;27.400;2023-05-20T07:50:55;100741.16;;;21.19;90.08
38303;BME280;24103;42.454;27.400;2023-05-20T07:53:23;100735.13;;;21.61;88.73
38303;BME280;24103;42.454;27.400;2023-05-20T07:55:49;100723.59;;;22.55;82.63
38303;BME280;24103;42.454;27.400;2023-05-20T07:58:14;100713.47;;;23.74;73.94
38303;BME280;24103;42.454;27.400;2023-05-20T08:00:40;100689.97;;;25.71;62.98
38303;BME280;24103;42.454;27.400;2023-05-20T08:03:06;100659.41;;;28.91;50.67
38303;BME280;24103;42.454;27.400;2023-05-20T08:05:32;100645.56;;;29.66;45.09
38303;BME280;24103;42.454;27.400;2023-05-20T08:07:57;100657.06;;;28.68;45.65
38303;BME280;24103;42.454;27.400;2023-05-20T08:10:23;100658.88;;;28.06;47.35
38303;BME280;24103;42.454;27.400;2023-05-20T08:12:48;100659.25;;;27.96;46.68
38303;BME280;24103;42.454;27.400;2023-05-20T08:15:14;100652.88;;;28.17;46.26
38303;BME280;24103;42.454;27.400;2023-05-20T08:17:39;100658.28;;;28.65;45.81
38303;BME280;24103;42.454;27.400;2023-05-20T08:20:05;100653.09;;;28.84;44.79
38303;BME280;24103;42.454;27.400;2023-05-20T08:22:32;100641.41;;;29.03;43.27
38303;BME280;24103;42.454;27.400;2023-05-20T08:24:57;100643.44;;;28.61;42.95
38303;BME280;24103;42.454;27.400;2023-05-20T08:27:23;100658.31;;;28.17;44.59
38303;BME280;24103;42.454;27.400;2023-05-20T08:29:49;100662.25;;;28.15;45.06
38303;BME280;24103;42.454;27.400;2023-05-20T08:32:14;100669.50;;;28.01;44.97
38303;BME280;24103;42.454;27.400;2023-05-20T08:34:39;100663.84;;;27.67;43.99
38303;BME280;24103;42.454;27.400;2023-05-20T08:37:06;100668.53;;;27.80;44.50
38303;BME280;24103;42.454;27.400;2023-05-20T08:39:32;100668.88;;;27.99;44.29
38303;BME280;24103;42.454;27.400;2023-05-20T08:41:57;100665.44;;;27.90;44.11
38303;BME280;24103;42.454;27.400;2023-05-20T08:44:23;100663.53;;;28.19;40.70
38303;BME280;24103;42.454;27.400;2023-05-20T08:46:50;100647.59;;;27.39;40.21
38303;BME280;24103;42.454;27.400;2023-05-20T08:49:16;100647.53;;;27.61;38.93
38303;BME280;24103;42.454;27.400;2023-05-20T08:51:42;100645.47;;;27.13;38.63
38303;BME280;24103;42.454;27.400;2023-05-20T08:54:08;100654.94;;;26.44;40.36
38303;BME280;24103;42.454;27.400;2023-05-20T08:56:36;100652.34;;;25.61;42.60
38303;BME280;24103;42.454;27.400;2023-05-20T08:59:03;100677.59;;;25.38;43.23
38303;BME280;24103;42.454;27.400;2023-05-20T09:01:29;100696.88;;;25.12;44.20
38303;BME280;24103;42.454;27.400;2023-05-20T09:03:55;100700.28;;;24.04;45.62
38303;BME280;24103;42.454;27.400;2023-05-20T09:06:21;100696.63;;;23.64;48.07
38303;BME280;24103;42.454;27.400;2023-05-20T09:08:49;100697.38;;;24.53;47.52
38303;BME280;24103;42.454;27.400;2023-05-20T09:11:16;100703.09;;;24.67;46.82
38303;BME280;24103;42.454;27.400;2023-05-20T09:13:42;100710.81;;;24.30;47.06
38303;BME280;24103;42.454;27.400;2023-05-20T09:16:09;100711.16;;;23.38;49.74
38303;BME280;24103;42.454;27.400;2023-05-20T09:18:38;100710.94;;;22.98;52.96
38303;BME280;24103;42.454;27.400;2023-05-20T09:21:04;100727.06;;;22.82;55.46
38303;BME280;24103;42.454;27.400;2023-05-20T09:23:36;100746.63;;;22.23;64.94
38303;BME280;24103;42.454;27.400;2023-05-20T09:26:02;100757.25;;;21.72;76.36
38303;BME280;24103;42.454;27.400;2023-05-20T09:28:28;100775.13;;;21.10;94.25
38303;BME280;24103;42.454;27.400;2023-05-20T09:30:57;100784.72;;;20.67;92.38
38303;BME280;24103;42.454;27.400;2023-05-20T09:33:29;100785.75;;;20.09;97.50
38303;BME280;24103;42.454;27.400;2023-05-20T09:36:02;100796.91;;;20.04;100.00
38303;BME280;24103;42.454;27.400;2023-05-20T09:38:30;100793.53;;;19.92;100.00
38303;BME280;24103;42.454;27.400;2023-05-20T09:41:06;100807.22;;;19.89;100.00
38303;BME280;24103;42.454;27.400;2023-05-20T09:43:33;100812.16;;;19.55;100.00
38303;BME280;24103;42.454;27.400;2023-05-20T09:45:59;100831.00;;;18.73;100.00
38303;BME280;24103;42.454;27.400;2023-05-20T09:48:26;100840.66;;;18.34;100.00
38303;BME280;24103;42.454;27.400;2023-05-20T09:50:53;100850.53;;;18.12;100.00
38303;BME280;24103;42.454;27.400;2023-05-20T09:53:20;100842.81;;;18.19;100.00
38303;BME280;24103;42.454;27.400;2023-05-20T09:55:46;100841.50;;;18.34;100.00
38303;BME280;24103;42.454;27.400;2023-05-20T09:58:12;100831.75;;;18.54;100.00
38303;BME280;24103;42.454;27.400;2023-05-20T10:00:38;100814.34;;;18.70;100.00
38303;BME280;24103;42.454;27.400;2023-05-20T10:03:03;100810.09;;;18.98;100.00
38303;BME280;24103;42.454;27.400;2023-05-20T10:05:31;100811.56;;;19.31;100.00
38303;BME280;24103;42.454;27.400;2023-05-20T10:19:32;100817.66;;;17.68;100.00
38303;BME280;24103;42.454;27.400;2023-05-20T10:22:04;100813.41;;;17.33;100.00
38303;BME280;24103;42.454;27.400;2023-05-20T10:24:35;100802.06;;;17.20;100.00
38303;BME280;24103;42.454;27.400;2023-05-20T10:27:03;100795.38;;;17.14;100.00
38303;BME280;24103;42.454;27.400;2023-05-20T10:29:43;100794.75;;;17.22;100.00
38303;BME280;24103;42.454;27.400;2023-05-20T10:32:09;100803.25;;;17.59;100.00
38303;BME280;24103;42.454;27.400;2023-05-20T10:34:46;100789.34;;;17.98;100.00
38303;BME280;24103;42.454;27.400;2023-05-20T10:37:31;100789.09;;;18.53;100.00
38303;BME280;24103;42.454;27.400;2023-05-20T10:42:36;100782.81;;;19.43;100.00
38303;BME280;24103;42.454;27.400;2023-05-20T10:45:02;100782.66;;;19.64;100.00
38303;BME280;24103;42.454;27.400;2023-05-20T10:47:28;100785.50;;;19.63;100.00
38303;BME280;24103;42.454;27.400;2023-05-20T10:49:54;100783.69;;;19.54;100.00
38303;BME280;24103;42.454;27.400;2023-05-20T10:52:20;100780.41;;;19.69;100.00
38303;BME280;24103;42.454;27.400;2023-05-20T10:54:46;100785.06;;;19.58;100.00
38303;BME280;24103;42.454;27.400;2023-05-20T10:57:13;100782.66;;;19.25;100.00
38303;BME280;24103;42.454;27.400;2023-05-20T10:59:39;100785.34;;;19.06;100.00
38303;BME280;24103;42.454;27.400;2023-05-20T11:02:05;100781.91;;;18.94;100.00
38303;BME280;24103;42.454;27.400;2023-05-20T11:04:31;100775.41;;;18.87;100.00
38303;BME280;24103;42.454;27.400;2023-05-20T11:06:56;100768.34;;;18.86;100.00
38303;BME280;24103;42.454;27.400;2023-05-20T11:09:23;100771.28;;;18.83;100.00
38303;BME280;24103;42.454;27.400;2023-05-20T11:11:50;100767.66;;;18.84;100.00
38303;BME280;24103;42.454;27.400;2023-05-20T11:14:16;100762.16;;;18.85;100.00
38303;BME280;24103;42.454;27.400;2023-05-20T11:16:44;100764.44;;;18.90;100.00
38303;BME280;24103;42.454;27.400;2023-05-20T11:19:14;100757.81;;;18.94;100.00
38303;BME280;24103;42.454;27.400;2023-05-20T11:21:44;100763.91;;;19.06;100.00
38303;BME280;24103;42.454;27.400;2023-05-20T11:24:11;100763.47;;;19.20;100.00
38303;BME280;24103;42.454;27.400;2023-05-20T11:26:37;100761.94;;;19.27;100.00
38303;BME280;24103;42.454;27.400;2023-05-20T11:29:02;100756.44;;;19.48;100.00
38303;BME280;24103;42.454;27.400;2023-05-20T11:31:29;100755.31;;;19.70;100.00
38303;BME280;24103;42.454;27.400;2023-05-20T11:33:58;100751.56;;;20.11;100.00
38303;BME280;24103;42.454;27.400;2023-05-20T11:36:25;100758.03;;;20.55;100.00
38303;BME280;24103;42.454;27.400;2023-05-20T11:38:53;100748.81;;;20.95;100.00
38303;BME280;24103;42.454;27.400;2023-05-20T11:41:25;100752.09;;;21.61;100.00
38303;BME280;24103;42.454;27.400;2023-05-20T11:43:57;100743.53;;;22.10;100.00
38303;BME280;24103;42.454;27.400;2023-05-20T11:46:23;100732.78;;;22.79;100.00
38303;BME280;24103;42.454;27.400;2023-05-20T11:48:55;100726.78;;;23.26;100.00
38303;BME280;24103;42.454;27.400;2023-05-20T11:51:28;100710.78;;;23.41;100.00
38303;BME280;24103;42.454;27.400;2023-05-20T11:54:05;100717.88;;;23.83;100.00
38303;BME280;24103;42.454;27.400;2023-05-20T11:56:37;100705.47;;;24.14;100.00
38303;BME280;24103;42.454;27.400;2023-05-20T11:59:03;100699.31;;;24.36;100.00
38303;BME280;24103;42.454;27.400;2023-05-20T12:01:31;100691.22;;;24.36;100.00
38303;BME280;24103;42.454;27.400;2023-05-20T12:04:03;100683.44;;;24.73;100.00
38303;BME280;24103;42.454;27.400;2023-05-20T12:06:29;100680.09;;;24.71;100.00
38303;BME280;24103;42.454;27.400;2023-05-20T12:08:57;100671.94;;;24.47;99.89
38303;BME280;24103;42.454;27.400;2023-05-20T12:11:23;100658.66;;;24.69;100.00
38303;BME280;24103;42.454;27.400;2023-05-20T12:13:49;100653.72;;;24.73;99.27
38303;BME280;24103;42.454;27.400;2023-05-20T12:16:14;100653.59;;;24.66;99.47
38303;BME280;24103;42.454;27.400;2023-05-20T12:18:40;100640.56;;;24.38;96.13
38303;BME280;24103;42.454;27.400;2023-05-20T12:21:05;100643.03;;;24.17;97.10
38303;BME280;24103;42.454;27.400;2023-05-20T12:23:31;100645.16;;;23.98;100.00
38303;BME280;24103;42.454;27.400;2023-05-20T12:25:58;100634.28;;;23.50;100.00
38303;BME280;24103;42.454;27.400;2023-05-20T12:28:23;100631.44;;;23.11;100.00
38303;BME280;24103;42.454;27.400;2023-05-20T12:30:49;100632.94;;;22.89;100.00
38303;BME280;24103;42.454;27.400;2023-05-20T12:33:14;100622.97;;;22.64;100.00
38303;BME280;24103;42.454;27.400;2023-05-20T12:35:41;100628.31;;;22.48;100.00
38303;BME280;24103;42.454;27.400;2023-05-20T12:38:08;100624.78;;;22.48;100.00
38303;BME280;24103;42.454;27.400;2023-05-20T12:40:34;100610.16;;;22.50;100.00
38303;BME280;24103;42.454;27.400;2023-05-20T12:43:01;100606.28;;;22.53;100.00